Time;durP1;ratioP1;P1;durP2;ratioP2;P2;SDS_P1;SDS_P2;PMS_P1;PMS_P2;Temp;Humidity;BMP_temperature;BMP_pressure;BME280_temperature;BME280_humidity;BME280_pressure;Samples;Min_cycle;Max_cycle;Signal;HPM_P1;HPM_P2
2024/01/03 00:00:26;;;;;;;;;5.25;3.00;;;;;-143.90;100.00;74543.78;4852245;28;104399;-73
2024/01/03 00:02:54;;;;;;;;;3.00;3.00;;;;;-143.90;100.00;74537.56;4854797;28;104165;-73
2024/01/03 00:05:22;;;;;;;;;7.50;6.00;;;;;-143.90;100.00;74533.44;4855522;28;104962;-74
2024/01/03 00:07:52;;;;;;;;;6.75;6.00;;;;;-143.90;100.00;74531.38;4840921;28;102955;-74
2024/01/03 00:10:41;;;;;;;;;10.00;6.00;;;;;-143.90;100.00;74531.38;4837944;28;103775;-74
2024/01/03 00:13:30;;;;;;;;;7.75;7.75;;;;;-143.90;100.00;74527.25;4856474;28;108846;-74
2024/01/03 00:16:07;;;;;;;;;7.75;7.75;;;;;-143.90;100.00;74529.31;4852206;28;102062;-73
2024/01/03 00:18:38;;;;;;;;;7.00;6.75;;;;;-143.90;100.00;74527.25;4856766;28;102411;-73
2024/01/03 00:21:06;;;;;;;;;7.00;6.00;;;;;-143.90;100.00;74527.25;4860699;28;102485;-73
2024/01/03 00:23:51;;;;;;;;;5.00;4.50;;;;;-143.90;100.00;74525.19;4861693;28;104147;-72
2024/01/03 00:26:18;;;;;;;;;5.75;5.00;;;;;-143.90;100.00;74523.09;4848953;28;103030;-73
2024/01/03 00:28:45;;;;;;;;;3.00;3.00;;;;;-143.90;100.00;74523.09;4860311;28;102096;-73
2024/01/03 00:31:37;;;;;;;;;5.00;5.00;;;;;-143.90;100.00;74523.09;4858158;28;103754;-73
2024/01/03 00:34:36;;;;;;;;;5.50;5.50;;;;;-143.90;100.00;74521.03;4833785;28;108858;-73
2024/01/03 00:37:17;;;;;;;;;5.75;5.75;;;;;-143.90;100.00;74518.97;4855640;28;102444;-73
2024/01/03 00:39:45;;;;;;;;;6.00;5.75;;;;;-143.90;100.00;74512.78;4857327;28;102497;-73
2024/01/03 00:42:11;;;;;;;;;3.50;2.75;;;;;-143.90;100.00;74506.56;4850321;28;102402;-74
2024/01/03 00:44:38;;;;;;;;;6.75;6.25;;;;;-143.90;100.00;74502.44;4856148;28;105808;-73
2024/01/03 00:47:05;;;;;;;;;5.00;3.50;;;;;-143.90;100.00;74504.50;4856956;28;102605;-73
2024/01/03 00:49:33;;;;;;;;;8.00;8.00;;;;;-143.90;100.00;74496.25;4851270;28;102207;-72
2024/01/03 00:52:01;;;;;;;;;5.75;5.50;;;;;-143.90;100.00;74483.84;4851685;28;103506;-73
2024/01/03 00:54:30;;;;;;;;;5.75;5.75;;;;;-143.90;100.00;74483.84;4857304;28;103921;-73
2024/01/03 00:56:59;;;;;;;;;6.00;6.00;;;;;-143.90;100.00;74487.97;4859038;28;103115;-73
2024/01/03 00:59:26;;;;;;;;;6.50;5.00;;;;;-143.90;100.00;74481.78;4859140;28;102409;-73
2024/01/03 01:01:54;;;;;;;;;4.50;4.50;;;;;-143.90;100.00;74479.69;4860020;28;102101;-72
2024/01/03 01:04:21;;;;;;;;;5.00;5.00;;;;;-143.90;100.00;74477.63;4851492;28;104110;-74
2024/01/03 01:06:48;;;;;;;;;5.75;4.50;;;;;-143.90;100.00;74465.22;4860329;28;102565;-73
2024/01/03 01:09:15;;;;;;;;;5.50;3.00;;;;;-143.90;100.00;74469.38;4861057;28;103290;-73
2024/01/03 01:11:42;;;;;;;;;5.00;3.00;;;;;-143.90;100.00;74465.22;4858167;28;104539;-73
2024/01/03 01:14:09;;;;;;;;;2.00;2.00;;;;;-143.90;100.00;74456.97;4844740;28;104030;-73
2024/01/03 01:16:35;;;;;;;;;5.00;5.00;;;;;-143.90;100.00;74456.97;4860512;28;102632;-73
2024/01/03 01:19:05;;;;;;;;;3.00;3.00;;;;;-143.90;100.00;74452.84;4855376;28;102526;-73
2024/01/03 01:21:32;;;;;;;;;5.25;2.75;;;;;-143.90;100.00;74452.84;4862108;28;102555;-73
2024/01/03 01:23:58;;;;;;;;;3.00;3.00;;;;;-143.90;100.00;74440.44;4852309;28;104165;-73
2024/01/03 01:26:25;;;;;;;;;4.50;2.75;;;;;-143.90;100.00;74434.22;4855553;28;103228;-74
2024/01/03 01:28:51;;;;;;;;;2.00;2.00;;;;;-143.90;100.00;74440.44;4857681;28;102809;-73
2024/01/03 01:31:18;;;;;;;;;2.00;2.00;;;;;-143.90;100.00;74432.16;4854529;28;102657;-74
2024/01/03 01:33:45;;;;;;;;;5.25;4.00;;;;;-143.90;100.00;74428.03;4854009;28;104286;-73
2024/01/03 01:36:14;;;;;;;;;2.50;2.00;;;;;-143.90;100.00;74432.16;4845703;28;103390;-74
2024/01/03 01:38:40;;;;;;;;;1.75;1.75;;;;;-143.90;100.00;74425.97;4853302;28;102296;-74
2024/01/03 01:41:07;;;;;;;;;2.25;2.00;;;;;-143.90;100.00;74419.75;4857945;28;102349;-74
2024/01/03 01:43:34;;;;;;;;;2.00;2.00;;;;;-143.90;100.00;74415.63;4854438;28;104406;-74
2024/01/03 01:46:00;;;;;;;;;3.00;2.25;;;;;-143.90;100.00;74415.63;4850760;28;102836;-74
2024/01/03 01:48:27;;;;;;;;;2.00;2.00;;;;;-143.90;100.00;74407.34;4853428;28;102364;-74
2024/01/03 01:50:54;;;;;;;;;2.50;2.00;;;;;-143.90;100.00;74403.22;4856049;28;102454;-74
2024/01/03 01:53:22;;;;;;;;;1.00;1.00;;;;;-143.90;100.00;74392.88;4849735;28;104266;-74
2024/01/03 01:55:49;;;;;;;;;1.00;1.00;;;;;-143.90;100.00;74384.63;4857242;28;102876;-74
2024/01/03 01:58:15;;;;;;;;;2.00;1.00;;;;;-143.90;100.00;74386.69;4842615;28;102497;-74
2024/01/03 02:00:42;;;;;;;;;1.00;1.00;;;;;-143.90;100.00;74376.34;4853506;28;102464;-73
2024/01/03 02:03:10;;;;;;;;;0.00;0.00;;;;;-143.90;100.00;74376.34;4855351;28;104332;-73
2024/01/03 02:05:38;;;;;;;;;0.75;0.75;;;;;-143.90;100.00;74368.09;4854805;28;102586;-73
2024/01/03 02:08:08;;;;;;;;;4.75;2.50;;;;;-143.90;100.00;74368.09;4843392;28;102323;-73
2024/01/03 02:10:36;;;;;;;;;1.25;1.00;;;;;-143.90;100.00;74368.09;4857216;28;102587;-74
2024/01/03 02:13:03;;;;;;;;;1.00;1.00;;;;;-143.90;100.00;74370.16;4845767;28;104168;-73
2024/01/03 02:15:29;;;;;;;;;1.00;1.00;;;;;-143.90;100.00;74366.00;4850626;28;102613;-73
2024/01/03 02:17:57;;;;;;;;;1.50;1.00;;;;;-143.90;100.00;74357.75;4823735;28;103958;-73
2024/01/03 02:20:30;;;;;;;;;1.00;1.00;;;;;-143.90;100.00;74353.63;4845808;28;102787;-73
2024/01/03 02:22:57;;;;;;;;;1.25;1.00;;;;;-143.90;100.00;74345.34;4854000;28;103988;-73
2024/01/03 02:25:23;;;;;;;;;0.00;0.00;;;;;-143.90;100.00;74335.00;4851182;28;102150;-74
2024/01/03 02:27:50;;;;;;;;;0.00;0.00;;;;;-143.90;100.00;74328.81;4852238;28;103627;-74
2024/01/03 02:30:17;;;;;;;;;0.25;0.00;;;;;-143.90;100.00;74326.75;4844660;28;102497;-74
2024/01/03 02:32:43;;;;;;;;;0.50;0.00;;;;;-143.90;100.00;74330.88;4851798;28;104110;-73
2024/01/03 02:35:10;;;;;;;;;0.50;0.50;;;;;-143.90;100.00;74320.53;4858629;28;102948;-74
2024/01/03 02:37:37;;;;;;;;;1.50;0.00;;;;;-143.90;100.00;74324.69;4853845;28;105404;-74
2024/01/03 02:40:04;;;;;;;;;0.75;0.75;;;;;-143.90;100.00;74322.59;4848996;28;104980;-74
2024/01/03 02:42:30;;;;;;;;;0.25;0.25;;;;;-143.90;100.00;74308.13;4861823;28;104086;-74
2024/01/03 02:44:57;;;;;;;;;1.00;1.00;;;;;-143.90;100.00;74312.28;4857512;28;102277;-74
2024/01/03 02:47:24;;;;;;;;;0.00;0.00;;;;;-143.90;100.00;74304.00;4861616;28;102157;-74
2024/01/03 02:49:54;;;;;;;;;0.25;0.25;;;;;-143.90;100.00;74301.94;4862430;28;106132;-74
2024/01/03 02:52:20;;;;;;;;;1.00;1.00;;;;;-143.90;100.00;74308.13;4854712;28;104173;-74
2024/01/03 02:54:47;;;;;;;;;0.00;0.00;;;;;-143.90;100.00;74301.94;4859759;28;102692;-74
2024/01/03 02:57:14;;;;;;;;;0.00;0.00;;;;;-143.90;100.00;74304.00;4865879;28;102337;-73
2024/01/03 02:59:40;;;;;;;;;0.25;0.25;;;;;-143.90;100.00;74293.66;4863040;28;104056;-74
2024/01/03 03:02:07;;;;;;;;;0.00;0.00;;;;;-143.90;100.00;74295.75;4827770;28;104990;-73
2024/01/03 03:04:34;;;;;;;;;1.00;1.00;;;;;-143.90;100.00;74293.66;4862724;28;102030;-73
2024/01/03 03:07:00;;;;;;;;;0.00;0.00;;;;;-143.90;100.00;74306.06;4860742;28;102553;-74
2024/01/03 03:09:27;;;;;;;;;0.25;0.25;;;;;-143.90;100.00;74308.13;4859930;28;102065;-73
2024/01/03 03:11:54;;;;;;;;;0.00;0.00;;;;;-143.90;100.00;74281.28;4862031;28;104046;-73
2024/01/03 03:14:21;;;;;;;;;0.75;0.75;;;;;-143.90;100.00;74287.47;4856614;28;104768;-74
2024/01/03 03:16:48;;;;;;;;;2.50;1.00;;;;;-143.90;100.00;74279.22;4860920;28;103093;-73
2024/01/03 03:19:15;;;;;;;;;0.50;0.25;;;;;-143.90;100.00;74281.28;4853888;28;102538;-73
2024/01/03 03:21:42;;;;;;;;;0.00;0.00;;;;;-143.90;100.00;74279.22;4860557;28;103965;-76
2024/01/03 03:24:09;;;;;;;;;1.00;1.00;;;;;-143.90;100.00;74275.06;4855950;28;102463;-73
2024/01/03 03:26:35;;;;;;;;;0.00;0.00;;;;;-143.90;100.00;74279.22;4860182;28;101949;-74
2024/01/03 03:29:02;;;;;;;;;0.75;0.75;;;;;-143.90;100.00;74270.94;4864593;28;103620;-74
2024/01/03 03:31:28;;;;;;;;;1.00;1.00;;;;;-143.90;100.00;74273.00;4861988;28;104132;-73
2024/01/03 03:33:55;;;;;;;;;0.50;0.00;;;;;-143.90;100.00;74279.22;4858034;28;103053;-73
2024/01/03 03:36:22;;;;;;;;;2.00;2.00;;;;;-143.90;100.00;74270.94;4859138;28;102211;-74
2024/01/03 03:38:48;;;;;;;;;2.50;2.50;;;;;-143.90;100.00;74266.81;4863348;28;102341;-73
2024/01/03 03:41:15;;;;;;;;;0.75;0.75;;;;;-143.90;100.00;74264.72;4861308;28;104191;-73
2024/01/03 03:43:42;;;;;;;;;3.00;2.25;;;;;-143.90;100.00;74262.66;4863465;28;102344;-73
2024/01/03 03:46:10;;;;;;;;;2.00;1.25;;;;;-143.90;100.00;74266.81;4851352;28;102012;-73
2024/01/03 03:48:37;;;;;;;;;1.00;1.00;;;;;-143.90;100.00;74258.53;4863946;28;102444;-73
2024/01/03 03:51:04;;;;;;;;;1.00;1.00;;;;;-143.90;100.00;74256.47;4852243;28;104153;-73
2024/01/03 03:53:31;;;;;;;;;2.75;1.50;;;;;-143.90;100.00;74248.19;4862864;28;104911;-73
2024/01/03 03:55:58;;;;;;;;;1.75;1.25;;;;;-143.90;100.00;74254.41;4851108;28;103712;-73
2024/01/03 03:58:24;;;;;;;;;4.00;2.50;;;;;-143.90;100.00;74262.66;4855038;28;105506;-72
2024/01/03 04:00:51;;;;;;;;;2.00;2.00;;;;;-143.90;100.00;74256.47;4857378;28;104155;-73
2024/01/03 04:03:17;;;;;;;;;2.25;2.25;;;;;-143.90;100.00;74246.13;4858812;28;102681;-72
2024/01/03 04:05:44;;;;;;;;;2.25;2.25;;;;;-143.90;100.00;74250.25;4856046;28;102830;-73
2024/01/03 04:08:11;;;;;;;;;2.50;2.00;;;;;-143.90;100.00;74246.13;4855207;28;102668;-72
2024/01/03 04:10:38;;;;;;;;;2.50;2.50;;;;;-143.90;100.00;74237.88;4855924;28;103985;-73
2024/01/03 04:13:06;;;;;;;;;2.50;2.00;;;;;-143.90;100.00;74242.00;4860429;28;102490;-73
2024/01/03 04:15:33;;;;;;;;;4.00;3.00;;;;;-143.90;100.00;74239.94;4858196;28;102738;-72
2024/01/03 04:18:00;;;;;;;;;3.00;2.00;;;;;-143.90;100.00;74246.13;4853522;28;102345;-73
2024/01/03 04:20:26;;;;;;;;;2.00;1.25;;;;;-143.90;100.00;74237.88;4839362;28;104720;-72
2024/01/03 04:22:53;;;;;;;;;2.00;2.00;;;;;-143.90;100.00;74237.88;4852017;28;102186;-73
2024/01/03 04:25:20;;;;;;;;;2.25;2.00;;;;;-143.90;100.00;74229.59;4859487;28;102287;-72
2024/01/03 04:27:46;;;;;;;;;3.00;2.25;;;;;-143.90;100.00;74227.53;4859274;28;102255;-72
2024/01/03 04:30:13;;;;;;;;;3.00;2.00;;;;;-143.90;100.00;74227.53;4850057;28;104033;-72
2024/01/03 04:32:39;;;;;;;;;2.00;2.00;;;;;-143.90;100.00;74221.31;4857553;28;103801;-73
2024/01/03 04:35:06;;;;;;;;;3.00;2.25;;;;;-143.90;100.00;74217.19;4857219;28;102234;-72
2024/01/03 04:37:34;;;;;;;;;2.00;2.00;;;;;-143.90;100.00;74200.66;4857628;28;103370;-72
2024/01/03 04:40:00;;;;;;;;;2.00;2.00;;;;;-143.90;100.00;74196.53;4836986;28;104180;-73
2024/01/03 04:42:27;;;;;;;;;3.50;2.00;;;;;-143.90;100.00;74188.25;4850485;28;102646;-71
2024/01/03 04:44:54;;;;;;;;;2.00;2.00;;;;;-143.90;100.00;74192.41;4853476;28;102481;-72
2024/01/03 04:47:20;;;;;;;;;3.75;3.00;;;;;-143.90;100.00;74190.31;4856441;28;101834;-72
2024/01/03 04:49:47;;;;;;;;;2.25;2.00;;;;;-143.90;100.00;74180.00;4852113;28;104306;-72
2024/01/03 04:52:14;;;;;;;;;3.00;2.25;;;;;-143.90;100.00;74175.84;4844422;28;102638;-72
2024/01/03 04:54:40;;;;;;;;;3.75;3.75;;;;;-143.90;100.00;74167.59;4856513;28;102495;-72
2024/01/03 04:57:07;;;;;;;;;4.00;3.50;;;;;-143.90;100.00;74163.47;4857398;28;102685;-72
2024/01/03 04:59:35;;;;;;;;;4.00;4.00;;;;;-143.90;100.00;74167.59;4857013;28;104861;-71
2024/01/03 05:02:02;;;;;;;;;3.75;3.00;;;;;-143.90;100.00;74159.31;4840568;28;103754;-72
2024/01/03 05:04:29;;;;;;;;;3.25;2.00;;;;;-143.90;100.00;74157.25;4860081;28;102226;-72
2024/01/03 05:06:56;;;;;;;;;2.75;2.25;;;;;-143.90;100.00;74144.84;4856798;28;102583;-72
2024/01/03 05:09:23;;;;;;;;;4.00;2.00;;;;;-143.90;100.00;74142.78;4858000;28;104072;-72
2024/01/03 05:11:50;;;;;;;;;6.25;3.75;;;;;-143.90;100.00;74138.66;4854657;28;102196;-72
2024/01/03 05:14:17;;;;;;;;;3.75;3.75;;;;;-143.90;100.00;74136.59;4848626;28;104108;-71
2024/01/03 05:16:43;;;;;;;;;2.75;2.75;;;;;-143.90;100.00;74130.38;4857255;28;102111;-72
2024/01/03 05:19:10;;;;;;;;;3.75;3.00;;;;;-143.90;100.00;74134.53;4855918;28;108789;-72
2024/01/03 05:21:37;;;;;;;;;3.00;2.75;;;;;-143.90;100.00;74132.44;4855056;28;102492;-72
2024/01/03 05:24:04;;;;;;;;;3.25;2.00;;;;;-143.90;100.00;74126.25;4848341;28;102141;-70
2024/01/03 05:26:31;;;;;;;;;2.00;2.00;;;;;-143.90;100.00;74126.25;4858441;28;102160;-72
2024/01/03 05:28:58;;;;;;;;;4.50;3.25;;;;;-143.90;100.00;74122.13;4857312;28;104346;-72
2024/01/03 05:31:24;;;;;;;;;5.00;3.00;;;;;-143.90;100.00;74126.25;4858521;28;103578;-72
2024/01/03 05:33:51;;;;;;;;;3.50;3.50;;;;;-143.90;100.00;74113.84;4857348;28;102294;-72
2024/01/03 05:36:18;;;;;;;;;6.00;3.50;;;;;-143.90;100.00;74120.06;4848836;28;102555;-73
2024/01/03 05:38:45;;;;;;;;;6.00;6.00;;;;;-143.90;100.00;74122.13;4855363;28;104346;-71
2024/01/03 05:41:12;;;;;;;;;4.00;3.50;;;;;-143.90;100.00;74120.06;4859320;28;105004;-72
2024/01/03 05:43:38;;;;;;;;;5.50;4.50;;;;;-143.90;100.00;74111.78;4853734;28;102030;-71
2024/01/03 05:46:05;;;;;;;;;9.00;8.00;;;;;-143.90;100.00;74118.00;4844133;28;102234;-72
2024/01/03 05:48:32;;;;;;;;;7.75;7.75;;;;;-143.90;100.00;74126.25;4858835;28;104385;-71
2024/01/03 05:50:59;;;;;;;;;8.00;8.00;;;;;-143.90;100.00;74124.19;4853319;28;102424;-71
2024/01/03 05:53:26;;;;;;;;;8.50;8.00;;;;;-143.90;100.00;74115.91;4856989;28;102469;-72
2024/01/03 05:55:52;;;;;;;;;7.00;7.00;;;;;-143.90;100.00;74113.84;4856096;28;102201;-71
2024/01/03 05:58:19;;;;;;;;;17.00;12.75;;;;;-143.90;100.00;74111.78;4846064;28;104194;-71
2024/01/03 06:00:45;;;;;;;;;20.25;15.75;;;;;-143.90;100.00;74101.44;4853958;28;102367;-71
2024/01/03 06:03:12;;;;;;;;;18.00;14.50;;;;;-143.90;100.00;74109.72;4858138;28;103156;-72
2024/01/03 06:05:39;;;;;;;;;16.50;14.00;;;;;-143.90;100.00;74107.66;4860388;28;102544;-72
2024/01/03 06:08:06;;;;;;;;;14.00;13.25;;;;;-143.90;100.00;74107.66;4849122;28;103952;-71
2024/01/03 06:10:33;;;;;;;;;12.00;11.50;;;;;-143.90;100.00;74111.78;4858521;28;102206;-71
2024/01/03 06:13:00;;;;;;;;;10.00;10.00;;;;;-143.90;100.00;74115.91;4859118;28;102287;-72
2024/01/03 06:15:27;;;;;;;;;9.50;7.00;;;;;-143.90;100.00;74124.19;4862953;28;102222;-72
2024/01/03 06:17:53;;;;;;;;;7.00;6.00;;;;;-143.90;100.00;74122.13;4858155;28;104832;-72
2024/01/03 06:20:21;;;;;;;;;8.75;8.25;;;;;-143.90;100.00;74118.00;4854379;28;102898;-73
2024/01/03 06:22:51;;;;;;;;;12.00;11.00;;;;;-143.90;100.00;74128.31;4858922;28;102536;-72
2024/01/03 06:25:18;;;;;;;;;11.00;11.00;;;;;-143.90;100.00;74124.19;4858800;28;102075;-73
2024/01/03 06:27:45;;;;;;;;;12.25;8.50;;;;;-143.90;100.00;74120.06;4861223;28;104127;-71
2024/01/03 06:30:11;;;;;;;;;8.25;7.50;;;;;-143.90;100.00;74120.06;4848109;28;102261;-71
2024/01/03 06:32:38;;;;;;;;;7.25;6.50;;;;;-143.90;100.00;74126.25;4857092;28;102104;-72
2024/01/03 06:35:06;;;;;;;;;14.50;13.00;;;;;-143.90;100.00;74122.13;4858459;28;102320;-73
2024/01/03 06:37:32;;;;;;;;;7.75;6.25;;;;;-143.90;100.00;74126.25;4845530;28;103336;-72
2024/01/03 06:39:59;;;;;;;;;10.50;9.00;;;;;-143.90;100.00;74122.13;4852116;28;102492;-73
2024/01/03 06:42:26;;;;;;;;;9.00;9.00;;;;;-143.90;100.00;74124.19;4854750;28;101921;-71
2024/01/03 06:44:53;;;;;;;;;13.50;11.75;;;;;-143.90;100.00;74124.19;4862574;28;103096;-73
2024/01/03 06:47:20;;;;;;;;;9.75;8.25;;;;;-143.90;100.00;74124.19;4858985;28;104342;-73
2024/01/03 06:49:47;;;;;;;;;9.00;7.75;;;;;-143.90;100.00;74130.38;4858747;28;103150;-73
2024/01/03 06:52:13;;;;;;;;;9.75;9.50;;;;;-143.90;100.00;74126.25;4854926;28;103255;-73
2024/01/03 06:54:40;;;;;;;;;9.50;7.75;;;;;-143.90;100.00;74126.25;4857637;28;102704;-74
2024/01/03 06:57:07;;;;;;;;;13.00;9.00;;;;;-143.90;100.00;74122.13;4861645;28;104184;-73
2024/01/03 06:59:35;;;;;;;;;13.25;12.00;;;;;-143.90;100.00;74118.00;4857798;28;101990;-73
2024/01/03 07:02:03;;;;;;;;;18.50;13.00;;;;;-143.90;100.00;74122.13;4845957;28;102691;-73
2024/01/03 07:04:30;;;;;;;;;14.50;13.25;;;;;-143.90;100.00;74120.06;4862995;28;102272;-74
2024/01/03 07:06:57;;;;;;;;;14.00;12.50;;;;;-143.90;100.00;74118.00;4859555;28;103296;-73
2024/01/03 07:09:23;;;;;;;;;6.00;4.00;;;;;-143.90;100.00;74126.25;4861198;28;102860;-73
2024/01/03 07:11:50;;;;;;;;;12.25;10.00;;;;;-143.90;100.00;74118.00;4858354;28;102578;-73
2024/01/03 07:14:17;;;;;;;;;6.50;6.50;;;;;-143.90;100.00;74109.72;4836092;28;102491;-73
2024/01/03 07:16:44;;;;;;;;;16.75;13.50;;;;;-143.90;100.00;74105.59;4858583;28;104490;-74
2024/01/03 07:19:13;;;;;;;;;9.25;8.00;;;;;-143.90;100.00;74105.59;4859987;28;101932;-73
2024/01/03 07:21:39;;;;;;;;;2.00;1.50;;;;;-143.90;100.00;74124.19;4859606;28;102049;-73
2024/01/03 07:24:06;;;;;;;;;9.50;8.25;;;;;-143.90;100.00;74111.78;4852136;28;102366;-73
2024/01/03 07:26:33;;;;;;;;;6.75;6.75;;;;;-143.90;100.00;74118.00;4859914;28;104027;-73
2024/01/03 07:29:00;;;;;;;;;9.25;8.00;;;;;-143.90;100.00;74115.91;4862570;28;102475;-73
2024/01/03 07:31:27;;;;;;;;;12.50;9.00;;;;;-143.90;100.00;74111.78;4862529;28;102126;-73
2024/01/03 07:33:53;;;;;;;;;9.75;8.00;;;;;-143.90;100.00;74107.66;4860499;28;102282;-73
2024/01/03 07:36:21;;;;;;;;;8.25;7.25;;;;;-143.90;100.00;74113.84;4852253;28;103954;-73
2024/01/03 07:38:48;;;;;;;;;9.75;7.75;;;;;-143.90;100.00;74118.00;4865970;28;102705;-73
2024/01/03 07:41:21;;;;;;;;;9.00;8.75;;;;;-143.90;100.00;74113.84;4861596;28;102307;-73
2024/01/03 07:43:47;;;;;;;;;10.25;8.50;;;;;-143.90;100.00;74113.84;4861920;28;102227;-73
2024/01/03 07:46:15;;;;;;;;;9.00;7.00;;;;;-143.90;100.00;74101.44;4851859;28;104356;-73
2024/01/03 07:48:42;;;;;;;;;10.50;10.25;;;;;-143.90;100.00;74118.00;4862091;28;102041;-73
2024/01/03 07:51:10;;;;;;;;;11.50;8.75;;;;;-143.90;100.00;74101.44;4861169;28;102712;-73
2024/01/03 07:53:37;;;;;;;;;15.50;10.00;;;;;-143.90;100.00;74111.78;4863017;28;102243;-72
2024/01/03 07:56:08;;;;;;;;;10.25;9.25;;;;;-143.90;100.00;74109.72;4850649;28;104241;-73
2024/01/03 07:58:35;;;;;;;;;7.25;6.50;;;;;-143.90;100.00;74107.66;4863259;28;102509;-71
2024/01/03 08:01:01;;;;;;;;;8.00;7.00;;;;;-143.90;100.00;74105.59;4847583;28;102454;-72
2024/01/03 08:03:28;;;;;;;;;8.75;8.25;;;;;-143.90;100.00;74105.59;4864167;28;102632;-72
2024/01/03 08:05:55;;;;;;;;;12.25;8.25;;;;;-143.90;100.00;74113.84;4860693;28;104067;-72
2024/01/03 08:08:22;;;;;;;;;8.25;8.00;;;;;-143.90;100.00;74109.72;4857371;28;102098;-72
2024/01/03 08:10:49;;;;;;;;;8.75;8.00;;;;;-143.90;100.00;74107.66;4862329;28;102301;-72
2024/01/03 08:13:16;;;;;;;;;7.00;6.50;;;;;-143.90;100.00;74109.72;4849445;28;102542;-73
2024/01/03 08:15:43;;;;;;;;;8.00;6.50;;;;;-143.90;100.00;74101.44;4867800;28;104082;-72
2024/01/03 08:18:09;;;;;;;;;8.25;7.50;;;;;-143.90;100.00;74105.59;4850671;28;102370;-72
2024/01/03 08:20:37;;;;;;;;;0.00;0.00;;;;;-143.90;100.00;74099.38;4862715;28;102026;-72
2024/01/03 08:23:04;;;;;;;;;7.75;7.50;;;;;-143.90;100.00;74093.19;4863971;28;106561;-73
2024/01/03 08:25:31;;;;;;;;;7.00;7.00;;;;;-143.90;100.00;74084.91;4860784;28;104015;-73
2024/01/03 08:27:57;;;;;;;;;14.25;9.00;;;;;-143.90;100.00;74082.84;4853441;28;102235;-73
2024/01/03 08:30:24;;;;;;;;;11.00;8.25;;;;;-143.90;100.00;74082.84;4858372;28;102069;-72
2024/01/03 08:32:51;;;;;;;;;6.00;6.00;;;;;-143.90;100.00;74089.06;4851266;28;102815;-73
2024/01/03 08:35:18;;;;;;;;;9.50;7.50;;;;;-143.90;100.00;74095.25;4845396;28;103954;-73
2024/01/03 08:37:45;;;;;;;;;8.50;7.00;;;;;-143.90;100.00;74086.97;4860117;28;103616;-72
2024/01/03 08:40:12;;;;;;;;;10.00;8.75;;;;;-143.90;100.00;74089.06;4855274;28;102095;-73
2024/01/03 08:42:38;;;;;;;;;13.50;11.25;;;;;-143.90;100.00;74093.19;4864229;28;102824;-73
2024/01/03 08:45:05;;;;;;;;;8.00;7.00;;;;;-143.90;100.00;74089.06;4858532;28;104024;-73
2024/01/03 08:47:32;;;;;;;;;11.75;8.00;;;;;-143.90;100.00;74089.06;4858648;28;105922;-72
2024/01/03 08:49:59;;;;;;;;;9.00;8.25;;;;;-143.90;100.00;74093.19;4855665;28;102362;-72
2024/01/03 08:52:27;;;;;;;;;10.25;8.25;;;;;-143.90;100.00;74099.38;4859414;28;103086;-73
2024/01/03 08:54:54;;;;;;;;;7.75;6.00;;;;;-143.90;100.00;74097.31;4858481;28;104207;-72
2024/01/03 08:57:20;;;;;;;;;15.00;8.00;;;;;-143.90;100.00;74101.44;4861876;28;101936;-72
2024/01/03 08:59:47;;;;;;;;;8.75;7.25;;;;;-143.90;100.00;74093.19;4864599;28;102468;-72
2024/01/03 09:02:14;;;;;;;;;8.25;7.00;;;;;-143.90;100.00;74082.84;4852203;28;103170;-72
2024/01/03 09:04:41;;;;;;;;;13.00;9.00;;;;;-143.90;100.00;74080.78;4859598;28;104006;-72
2024/01/03 09:07:07;;;;;;;;;7.50;7.25;;;;;-143.90;100.00;74080.78;4866722;28;102479;-72
2024/01/03 09:09:34;;;;;;;;;12.75;9.00;;;;;-143.90;100.00;74064.25;4857564;28;103048;-72
2024/01/03 09:12:01;;;;;;;;;12.00;8.75;;;;;-143.90;100.00;74068.38;4856108;28;102344;-73
2024/01/03 09:14:28;;;;;;;;;7.00;4.00;;;;;-143.90;100.00;74060.13;4857991;28;105307;-71
2024/01/03 09:16:55;;;;;;;;;10.00;9.75;;;;;-143.90;100.00;74064.25;4861605;28;105272;-72
2024/01/03 09:19:21;;;;;;;;;9.75;8.25;;;;;-143.90;100.00;74070.44;4861157;28;102118;-72
2024/01/03 09:21:48;;;;;;;;;8.75;7.75;;;;;-143.90;100.00;74064.25;4859773;28;102584;-72
2024/01/03 09:24:15;;;;;;;;;9.75;7.00;;;;;-143.90;100.00;74055.97;4849625;28;104243;-73
2024/01/03 09:26:41;;;;;;;;;7.00;6.50;;;;;-143.90;100.00;74049.78;4859956;28;102320;-72
2024/01/03 09:29:08;;;;;;;;;6.00;5.50;;;;;-143.90;100.00;74037.38;4858286;28;102048;-72
2024/01/03 09:31:44;;;;;;;;;11.00;9.25;;;;;-143.90;100.00;74033.25;4860688;28;104461;-72
2024/01/03 09:34:11;;;;;;;;;7.50;7.00;;;;;-143.90;100.00;74045.66;4852312;28;108561;-72
2024/01/03 09:36:39;;;;;;;;;7.50;7.50;;;;;-143.90;100.00;74043.59;4861004;28;102140;-73
2024/01/03 09:39:05;;;;;;;;;8.00;7.25;;;;;-143.90;100.00;74027.03;4855569;28;102462;-73
2024/01/03 09:41:32;;;;;;;;;11.75;8.00;;;;;-143.90;100.00;74014.66;4865510;28;102754;-73
2024/01/03 09:44:01;;;;;;;;;9.00;8.75;;;;;-143.90;100.00;74018.78;4856004;28;105595;-73
2024/01/03 09:46:30;;;;;;;;;7.00;7.00;;;;;-143.90;100.00;74022.91;4854802;28;102361;-72
2024/01/03 09:48:56;;;;;;;;;6.00;5.00;;;;;-143.90;100.00;74010.50;4855498;28;102292;-72
2024/01/03 09:51:23;;;;;;;;;8.25;6.25;;;;;-143.90;100.00;74014.66;4864547;28;103650;-72
2024/01/03 09:53:51;;;;;;;;;4.00;3.75;;;;;-143.90;100.00;74004.31;4859718;28;105316;-72
2024/01/03 09:56:18;;;;;;;;;7.50;6.25;;;;;-143.90;100.00;74006.38;4850712;28;102479;-72
2024/01/03 09:58:46;;;;;;;;;6.75;4.75;;;;;-143.90;100.00;73996.03;4855959;28;102332;-73
2024/01/03 10:01:12;;;;;;;;;9.00;6.50;;;;;-143.90;100.00;74004.31;4867095;28;101967;-73
2024/01/03 10:03:39;;;;;;;;;5.00;4.75;;;;;-143.90;100.00;74002.25;4854059;28;104017;-74
2024/01/03 10:06:12;;;;;;;;;7.25;6.00;;;;;-143.90;100.00;73998.13;4853329;28;102480;-73
2024/01/03 10:09:02;;;;;;;;;6.75;5.00;;;;;-143.90;100.00;73987.78;4858224;28;102056;-71
2024/01/03 10:11:30;;;;;;;;;5.00;5.00;;;;;-143.90;100.00;73969.19;4861416;28;102715;-73
2024/01/03 10:14:14;;;;;;;;;3.75;3.75;;;;;-143.90;100.00;73985.72;4859163;28;103667;-73
2024/01/03 10:16:43;;;;;;;;;4.00;4.00;;;;;-143.90;100.00;73973.31;4862150;28;102316;-73
2024/01/03 10:19:18;;;;;;;;;6.50;4.75;;;;;-143.90;100.00;73969.19;4856973;28;102036;-72
2024/01/03 10:21:53;;;;;;;;;5.25;2.00;;;;;-143.90;100.00;73975.38;4858220;28;102618;-72
2024/01/03 10:24:24;;;;;;;;;5.00;5.00;;;;;-143.90;100.00;73973.31;4844286;28;108566;-72
2024/01/03 10:26:52;;;;;;;;;7.25;4.00;;;;;-143.90;100.00;73960.91;4852525;28;102573;-71
2024/01/03 10:29:20;;;;;;;;;2.75;2.00;;;;;-143.90;100.00;73965.03;4860613;28;102512;-72
2024/01/03 10:31:49;;;;;;;;;4.50;4.25;;;;;-143.90;100.00;73977.44;4865864;28;102494;-72
2024/01/03 10:34:23;;;;;;;;;5.50;5.00;;;;;-143.90;100.00;73971.25;4849325;28;108759;-72
2024/01/03 10:36:53;;;;;;;;;4.75;2.75;;;;;-143.90;100.00;73987.78;4856214;28;102121;-72
2024/01/03 10:39:20;;;;;;;;;3.00;2.50;;;;;-143.90;100.00;73985.72;4863351;28;102123;-72
2024/01/03 10:41:48;;;;;;;;;7.25;5.00;;;;;-143.90;100.00;73983.66;4862470;28;102301;-72
2024/01/03 10:44:17;;;;;;;;;6.00;4.00;;;;;-143.90;100.00;73977.44;4850563;28;108771;-73
2024/01/03 10:46:45;;;;;;;;;4.00;4.00;;;;;-143.90;100.00;73971.25;4864663;28;103013;-73
2024/01/03 10:49:12;;;;;;;;;4.00;4.00;;;;;-143.90;100.00;73969.19;4860904;28;102816;-72
2024/01/03 10:51:41;;;;;;;;;7.00;5.00;;;;;-143.90;100.00;73956.78;4861691;28;102664;-72
2024/01/03 10:54:13;;;;;;;;;5.50;4.75;;;;;-143.90;100.00;73956.78;4847952;28;102995;-72
2024/01/03 10:56:48;;;;;;;;;4.00;4.00;;;;;-143.90;100.00;73956.78;4858296;28;102409;-72
2024/01/03 10:59:17;;;;;;;;;3.50;3.50;;;;;-143.90;100.00;73946.44;4859852;28;102273;-74
2024/01/03 11:01:50;;;;;;;;;4.00;4.00;;;;;-143.90;100.00;73936.09;4848874;28;102197;-73